sensor_id;sensor_type;location;lat;lon;timestamp;pressure;altitude;pressure_sealevel;temperature;humidity
65872;BME280;52653;50.080;21.992;2023-01-31T00:00:36;98177.77;;;0.97;93.26
65872;BME280;52653;50.080;21.992;2023-01-31T00:03:29;98179.27;;;0.92;93.79
65872;BME280;52653;50.080;21.992;2023-01-31T00:06:25;98174.36;;;0.87;93.93
65872;BME280;52653;50.080;21.992;2023-01-31T00:09:19;98180.34;;;0.84;94.42
65872;BME280;52653;50.080;21.992;2023-01-31T00:12:11;98183.27;;;0.81;94.52
65872;BME280;52653;50.080;21.992;2023-01-31T00:15:05;98182.02;;;0.80;94.81
65872;BME280;52653;50.080;21.992;2023-01-31T00:17:58;98189.44;;;0.79;94.84
65872;BME280;52653;50.080;21.992;2023-01-31T00:20:51;98189.24;;;0.77;94.98
65872;BME280;52653;50.080;21.992;2023-01-31T00:23:38;98201.28;;;0.76;95.21
65872;BME280;52653;50.080;21.992;2023-01-31T00:26:32;98202.29;;;0.75;95.11
65872;BME280;52653;50.080;21.992;2023-01-31T00:29:27;98198.48;;;0.74;95.39
65872;BME280;52653;50.080;21.992;2023-01-31T00:32:20;98202.61;;;0.72;95.55
65872;BME280;52653;50.080;21.992;2023-01-31T00:35:13;98207.91;;;0.69;95.72
65872;BME280;52653;50.080;21.992;2023-01-31T00:38:06;98204.80;;;0.68;95.79
65872;BME280;52653;50.080;21.992;2023-01-31T00:40:58;98208.23;;;0.66;95.96
65872;BME280;52653;50.080;21.992;2023-01-31T00:43:34;98207.52;;;0.65;96.13
65872;BME280;52653;50.080;21.992;2023-01-31T00:46:28;98216.15;;;0.66;96.20
65872;BME280;52653;50.080;21.992;2023-01-31T00:49:21;98220.80;;;0.65;96.36
65872;BME280;52653;50.080;21.992;2023-01-31T00:52:14;98223.55;;;0.64;96.42
65872;BME280;52653;50.080;21.992;2023-01-31T00:55:00;98228.05;;;0.64;96.53
65872;BME280;52653;50.080;21.992;2023-01-31T00:57:53;98231.16;;;0.65;96.70
65872;BME280;52653;50.080;21.992;2023-01-31T01:00:46;98230.33;;;0.67;96.58
65872;BME280;52653;50.080;21.992;2023-01-31T01:03:40;98234.31;;;0.69;96.44
65872;BME280;52653;50.080;21.992;2023-01-31T01:06:34;98237.62;;;0.71;96.37
65872;BME280;52653;50.080;21.992;2023-01-31T01:09:21;98236.08;;;0.72;96.37
65872;BME280;52653;50.080;21.992;2023-01-31T01:12:13;98238.52;;;0.74;96.20
65872;BME280;52653;50.080;21.992;2023-01-31T01:15:08;98244.46;;;0.77;96.08
65872;BME280;52653;50.080;21.992;2023-01-31T01:18:01;98247.60;;;0.80;96.09
65872;BME280;52653;50.080;21.992;2023-01-31T01:20:54;98250.74;;;0.82;95.86
65872;BME280;52653;50.080;21.992;2023-01-31T01:23:49;98253.03;;;0.85;95.75
65872;BME280;52653;50.080;21.992;2023-01-31T01:26:42;98252.88;;;0.87;95.67
65872;BME280;52653;50.080;21.992;2023-01-31T01:29:34;98252.59;;;0.90;95.53
65872;BME280;52653;50.080;21.992;2023-01-31T01:32:27;98256.61;;;0.93;95.49
65872;BME280;52653;50.080;21.992;2023-01-31T01:35:21;98253.36;;;0.96;95.24
65872;BME280;52653;50.080;21.992;2023-01-31T01:38:14;98259.95;;;0.98;95.40
65872;BME280;52653;50.080;21.992;2023-01-31T01:40:59;98260.68;;;1.01;95.24
65872;BME280;52653;50.080;21.992;2023-01-31T01:43:54;98263.34;;;1.05;95.09
65872;BME280;52653;50.080;21.992;2023-01-31T01:46:47;98265.98;;;1.09;95.11
65872;BME280;52653;50.080;21.992;2023-01-31T01:49:40;98274.02;;;1.15;94.75
65872;BME280;52653;50.080;21.992;2023-01-31T01:52:36;98277.87;;;1.18;94.56
65872;BME280;52653;50.080;21.992;2023-01-31T01:55:35;98277.76;;;1.23;94.40
65872;BME280;52653;50.080;21.992;2023-01-31T01:58:35;98275.54;;;1.26;94.21
65872;BME280;52653;50.080;21.992;2023-01-31T02:01:35;98278.17;;;1.28;94.17
65872;BME280;52653;50.080;21.992;2023-01-31T02:04:28;98281.46;;;1.28;93.91
65872;BME280;52653;50.080;21.992;2023-01-31T02:07:24;98285.73;;;1.26;93.72
65872;BME280;52653;50.080;21.992;2023-01-31T02:10:21;98284.17;;;1.26;93.77
65872;BME280;52653;50.080;21.992;2023-01-31T02:13:16;98278.67;;;1.27;93.62
65872;BME280;52653;50.080;21.992;2023-01-31T02:16:10;98283.89;;;1.29;93.67
65872;BME280;52653;50.080;21.992;2023-01-31T02:19:07;98283.23;;;1.30;93.57
65872;BME280;52653;50.080;21.992;2023-01-31T02:22:18;98286.51;;;1.30;93.58
65872;BME280;52653;50.080;21.992;2023-01-31T02:29:19;98282.05;;;1.33;93.23
65872;BME280;52653;50.080;21.992;2023-01-31T02:32:32;98288.27;;;1.35;93.31
65872;BME280;52653;50.080;21.992;2023-01-31T02:35:31;98289.84;;;1.36;93.25
65872;BME280;52653;50.080;21.992;2023-01-31T02:38:38;98292.80;;;1.37;93.17
65872;BME280;52653;50.080;21.992;2023-01-31T02:41:31;98292.09;;;1.36;93.22
65872;BME280;52653;50.080;21.992;2023-01-31T02:44:28;98287.61;;;1.36;93.13
65872;BME280;52653;50.080;21.992;2023-01-31T02:47:57;98291.75;;;1.36;93.10
65872;BME280;52653;50.080;21.992;2023-01-31T02:51:00;98291.94;;;1.36;92.84
65872;BME280;52653;50.080;21.992;2023-01-31T02:54:03;98293.35;;;1.39;92.85
65872;BME280;52653;50.080;21.992;2023-01-31T02:56:57;98299.77;;;1.41;92.54
65872;BME280;52653;50.080;21.992;2023-01-31T02:59:50;98301.89;;;1.44;92.47
65872;BME280;52653;50.080;21.992;2023-01-31T03:02:43;98314.52;;;1.46;92.38
65872;BME280;52653;50.080;21.992;2023-01-31T03:05:36;98308.66;;;1.46;92.07
65872;BME280;52653;50.080;21.992;2023-01-31T03:08:30;98314.72;;;1.47;92.16
65872;BME280;52653;50.080;21.992;2023-01-31T03:11:26;98318.67;;;1.46;92.25
65872;BME280;52653;50.080;21.992;2023-01-31T03:14:26;98320.58;;;1.47;92.23
65872;BME280;52653;50.080;21.992;2023-01-31T03:17:17;98326.13;;;1.48;92.12
65872;BME280;52653;50.080;21.992;2023-01-31T03:20:26;98325.96;;;1.49;92.21
65872;BME280;52653;50.080;21.992;2023-01-31T03:23:23;98331.65;;;1.48;92.29
65872;BME280;52653;50.080;21.992;2023-01-31T03:26:14;98340.30;;;1.48;92.33
65872;BME280;52653;50.080;21.992;2023-01-31T03:29:12;98338.58;;;1.50;92.22
65872;BME280;52653;50.080;21.992;2023-01-31T03:32:09;98343.61;;;1.51;92.03
65872;BME280;52653;50.080;21.992;2023-01-31T03:35:04;98354.36;;;1.53;92.18
65872;BME280;52653;50.080;21.992;2023-01-31T03:38:06;98358.71;;;1.54;92.22
65872;BME280;52653;50.080;21.992;2023-01-31T03:41:13;98368.56;;;1.54;92.04
65872;BME280;52653;50.080;21.992;2023-01-31T03:44:13;98368.87;;;1.52;92.10
65872;BME280;52653;50.080;21.992;2023-01-31T03:47:12;98375.54;;;1.48;92.24
65872;BME280;52653;50.080;21.992;2023-01-31T03:50:09;98372.89;;;1.43;92.35
65872;BME280;52653;50.080;21.992;2023-01-31T03:53:08;98383.00;;;1.38;92.63
65872;BME280;52653;50.080;21.992;2023-01-31T03:56:06;98386.72;;;1.33;92.82
65872;BME280;52653;50.080;21.992;2023-01-31T03:59:08;98384.96;;;1.31;92.83
65872;BME280;52653;50.080;21.992;2023-01-31T04:02:05;98394.36;;;1.24;92.95
65872;BME280;52653;50.080;21.992;2023-01-31T04:05:03;98394.98;;;1.20;93.09
65872;BME280;52653;50.080;21.992;2023-01-31T04:07:58;98399.21;;;1.14;93.50
65872;BME280;52653;50.080;21.992;2023-01-31T04:10:51;98404.08;;;1.15;93.66
65872;BME280;52653;50.080;21.992;2023-01-31T04:13:46;98409.79;;;1.16;93.71
65872;BME280;52653;50.080;21.992;2023-01-31T04:16:39;98412.72;;;1.16;93.72
65872;BME280;52653;50.080;21.992;2023-01-31T04:19:32;98413.59;;;1.16;93.77
65872;BME280;52653;50.080;21.992;2023-01-31T04:22:25;98416.55;;;1.18;93.66
65872;BME280;52653;50.080;21.992;2023-01-31T04:25:18;98415.55;;;1.22;93.78
65872;BME280;52653;50.080;21.992;2023-01-31T04:28:04;98417.48;;;1.24;93.64
65872;BME280;52653;50.080;21.992;2023-01-31T04:30:58;98411.48;;;1.27;93.73
65872;BME280;52653;50.080;21.992;2023-01-31T04:33:51;98418.80;;;1.29;93.58
65872;BME280;52653;50.080;21.992;2023-01-31T04:36:44;98420.73;;;1.31;93.64
65872;BME280;52653;50.080;21.992;2023-01-31T04:39:37;98427.67;;;1.34;93.57
65872;BME280;52653;50.080;21.992;2023-01-31T04:42:30;98433.56;;;1.35;93.41
65872;BME280;52653;50.080;21.992;2023-01-31T04:45:23;98444.63;;;1.35;93.46
65872;BME280;52653;50.080;21.992;2023-01-31T04:48:16;98447.04;;;1.35;93.43
65872;BME280;52653;50.080;21.992;2023-01-31T04:51:09;98449.48;;;1.38;93.40
65872;BME280;52653;50.080;21.992;2023-01-31T04:54:02;98454.56;;;1.41;93.28
65872;BME280;52653;50.080;21.992;2023-01-31T04:56:55;98460.84;;;1.44;93.25
65872;BME280;52653;50.080;21.992;2023-01-31T04:59:49;98457.23;;;1.45;93.13
65872;BME280;52653;50.080;21.992;2023-01-31T05:02:42;98464.35;;;1.48;93.04
65872;BME280;52653;50.080;21.992;2023-01-31T05:05:35;98458.14;;;1.48;92.95
65872;BME280;52653;50.080;21.992;2023-01-31T05:08:28;98463.48;;;1.47;92.78
65872;BME280;52653;50.080;21.992;2023-01-31T05:11:23;98460.48;;;1.42;92.71
65872;BME280;52653;50.080;21.992;2023-01-31T05:14:16;98458.67;;;1.39;92.91
65872;BME280;52653;50.080;21.992;2023-01-31T05:17:12;98470.90;;;1.37;92.93
65872;BME280;52653;50.080;21.992;2023-01-31T05:20:06;98480.20;;;1.34;93.11
65872;BME280;52653;50.080;21.992;2023-01-31T05:23:00;98481.50;;;1.30;93.18
65872;BME280;52653;50.080;21.992;2023-01-31T05:25:54;98490.08;;;1.27;93.39
65872;BME280;52653;50.080;21.992;2023-01-31T05:28:47;98492.98;;;1.26;93.56
65872;BME280;52653;50.080;21.992;2023-01-31T05:31:40;98493.51;;;1.25;93.42
65872;BME280;52653;50.080;21.992;2023-01-31T05:34:33;98502.31;;;1.26;93.62
65872;BME280;52653;50.080;21.992;2023-01-31T05:37:27;98503.58;;;1.27;93.38
65872;BME280;52653;50.080;21.992;2023-01-31T05:40:20;98507.91;;;1.29;93.41
65872;BME280;52653;50.080;21.992;2023-01-31T05:43:12;98510.73;;;1.32;93.47
65872;BME280;52653;50.080;21.992;2023-01-31T05:45:58;98519.25;;;1.35;93.33
65872;BME280;52653;50.080;21.992;2023-01-31T05:48:51;98527.21;;;1.37;93.20
65872;BME280;52653;50.080;21.992;2023-01-31T05:51:45;98527.73;;;1.37;93.15
65872;BME280;52653;50.080;21.992;2023-01-31T05:54:38;98533.51;;;1.40;93.09
65872;BME280;52653;50.080;21.992;2023-01-31T05:57:32;98534.89;;;1.40;92.82
65872;BME280;52653;50.080;21.992;2023-01-31T06:00:25;98533.18;;;1.41;93.03
65872;BME280;52653;50.080;21.992;2023-01-31T06:03:17;98538.91;;;1.42;92.69
65872;BME280;52653;50.080;21.992;2023-01-31T06:05:53;98542.22;;;1.44;92.61
65872;BME280;52653;50.080;21.992;2023-01-31T06:08:46;98546.02;;;1.44;92.48
65872;BME280;52653;50.080;21.992;2023-01-31T06:11:39;98548.60;;;1.43;92.16
65872;BME280;52653;50.080;21.992;2023-01-31T06:14:32;98549.11;;;1.42;92.00
65872;BME280;52653;50.080;21.992;2023-01-31T06:17:24;98555.50;;;1.43;92.08
65872;BME280;52653;50.080;21.992;2023-01-31T06:20:19;98558.83;;;1.45;91.90
65872;BME280;52653;50.080;21.992;2023-01-31T06:23:12;98559.57;;;1.49;91.65
65872;BME280;52653;50.080;21.992;2023-01-31T06:26:05;98566.34;;;1.51;91.47
65872;BME280;52653;50.080;21.992;2023-01-31T06:28:59;98577.20;;;1.50;91.16
65872;BME280;52653;50.080;21.992;2023-01-31T06:31:52;98575.52;;;1.51;91.06
65872;BME280;52653;50.080;21.992;2023-01-31T06:34:45;98572.45;;;1.54;90.84
65872;BME280;52653;50.080;21.992;2023-01-31T06:37:38;98590.64;;;1.55;90.41
65872;BME280;52653;50.080;21.992;2023-01-31T06:40:31;98599.32;;;1.58;90.34
65872;BME280;52653;50.080;21.992;2023-01-31T06:43:24;98603.13;;;1.58;89.82
65872;BME280;52653;50.080;21.992;2023-01-31T06:46:16;98604.56;;;1.62;89.88
65872;BME280;52653;50.080;21.992;2023-01-31T06:49:09;98611.56;;;1.66;89.88
65872;BME280;52653;50.080;21.992;2023-01-31T06:52:03;98623.10;;;1.64;89.65
65872;BME280;52653;50.080;21.992;2023-01-31T06:54:56;98625.88;;;1.64;89.80
65872;BME280;52653;50.080;21.992;2023-01-31T06:57:49;98627.62;;;1.66;89.71
65872;BME280;52653;50.080;21.992;2023-01-31T07:00:42;98634.07;;;1.68;89.72
65872;BME280;52653;50.080;21.992;2023-01-31T07:03:35;98641.69;;;1.68;89.26
65872;BME280;52653;50.080;21.992;2023-01-31T07:06:27;98647.95;;;1.72;89.32
65872;BME280;52653;50.080;21.992;2023-01-31T07:09:21;98649.05;;;1.75;89.08
65872;BME280;52653;50.080;21.992;2023-01-31T07:12:14;98658.91;;;1.76;88.78
65872;BME280;52653;50.080;21.992;2023-01-31T07:15:09;98661.52;;;1.77;88.63
65872;BME280;52653;50.080;21.992;2023-01-31T07:18:02;98663.48;;;1.78;88.83
65872;BME280;52653;50.080;21.992;2023-01-31T07:20:55;98665.93;;;1.81;88.88
65872;BME280;52653;50.080;21.992;2023-01-31T07:23:48;98671.48;;;1.81;88.81
65872;BME280;52653;50.080;21.992;2023-01-31T07:26:41;98673.80;;;1.86;88.96
65872;BME280;52653;50.080;21.992;2023-01-31T07:29:33;98672.94;;;1.86;88.60
65872;BME280;52653;50.080;21.992;2023-01-31T07:32:30;98680.05;;;1.88;88.34
65872;BME280;52653;50.080;21.992;2023-01-31T07:35:24;98690.44;;;1.89;88.50
65872;BME280;52653;50.080;21.992;2023-01-31T07:38:12;98687.74;;;1.92;90.37
65872;BME280;52653;50.080;21.992;2023-01-31T07:41:05;98695.06;;;1.95;88.98
65872;BME280;52653;50.080;21.992;2023-01-31T07:43:58;98691.05;;;1.93;87.96
65872;BME280;52653;50.080;21.992;2023-01-31T07:46:53;98691.40;;;1.93;88.08
65872;BME280;52653;50.080;21.992;2023-01-31T07:49:46;98699.31;;;2.01;88.08
65872;BME280;52653;50.080;21.992;2023-01-31T07:52:41;98705.16;;;2.09;87.53
65872;BME280;52653;50.080;21.992;2023-01-31T07:55:36;98710.92;;;2.12;87.39
65872;BME280;52653;50.080;21.992;2023-01-31T07:58:22;98711.10;;;2.12;87.48
65872;BME280;52653;50.080;21.992;2023-01-31T08:01:08;98725.23;;;2.09;87.29
65872;BME280;52653;50.080;21.992;2023-01-31T08:04:20;98733.68;;;2.07;87.52
65872;BME280;52653;50.080;21.992;2023-01-31T08:07:13;98728.56;;;2.12;87.42
65872;BME280;52653;50.080;21.992;2023-01-31T08:10:07;98730.23;;;2.18;87.19
65872;BME280;52653;50.080;21.992;2023-01-31T08:13:01;98743.59;;;2.19;87.19
65872;BME280;52653;50.080;21.992;2023-01-31T08:15:54;98751.24;;;2.12;87.30
65872;BME280;52653;50.080;21.992;2023-01-31T08:18:49;98751.89;;;2.01;87.72
65872;BME280;52653;50.080;21.992;2023-01-31T08:21:43;98756.44;;;1.94;88.11
65872;BME280;52653;50.080;21.992;2023-01-31T08:24:36;98764.61;;;1.88;88.62
65872;BME280;52653;50.080;21.992;2023-01-31T08:27:22;98767.71;;;1.87;88.66
65872;BME280;52653;50.080;21.992;2023-01-31T08:30:10;98768.21;;;1.87;88.75
65872;BME280;52653;50.080;21.992;2023-01-31T08:33:04;98765.81;;;1.96;88.82
65872;BME280;52653;50.080;21.992;2023-01-31T08:35:57;98770.84;;;2.15;88.47
65872;BME280;52653;50.080;21.992;2023-01-31T08:39:10;98772.85;;;2.30;87.59
65872;BME280;52653;50.080;21.992;2023-01-31T08:42:04;98775.45;;;2.40;87.05
65872;BME280;52653;50.080;21.992;2023-01-31T08:44:57;98777.17;;;2.51;86.45
65872;BME280;52653;50.080;21.992;2023-01-31T08:47:53;98778.89;;;2.59;86.32
65872;BME280;52653;50.080;21.992;2023-01-31T08:50:46;98775.27;;;2.69;86.02
65872;BME280;52653;50.080;21.992;2023-01-31T08:53:30;98777.41;;;2.74;85.66
65872;BME280;52653;50.080;21.992;2023-01-31T08:56:24;98786.95;;;2.76;85.40
65872;BME280;52653;50.080;21.992;2023-01-31T08:59:19;98786.09;;;2.76;85.33
65872;BME280;52653;50.080;21.992;2023-01-31T09:02:12;98791.65;;;2.78;84.82
65872;BME280;52653;50.080;21.992;2023-01-31T09:05:05;98794.11;;;2.79;84.88
65872;BME280;52653;50.080;21.992;2023-01-31T09:07:59;98805.55;;;2.80;84.26
65872;BME280;52653;50.080;21.992;2023-01-31T09:10:55;98803.08;;;2.77;83.98
65872;BME280;52653;50.080;21.992;2023-01-31T09:13:50;98802.55;;;2.77;83.85
65872;BME280;52653;50.080;21.992;2023-01-31T09:16:43;98806.82;;;2.83;84.06
65872;BME280;52653;50.080;21.992;2023-01-31T09:19:37;98807.96;;;2.90;83.52
65872;BME280;52653;50.080;21.992;2023-01-31T09:22:32;98809.16;;;2.99;83.29
65872;BME280;52653;50.080;21.992;2023-01-31T09:25:25;98813.98;;;3.09;82.83
65872;BME280;52653;50.080;21.992;2023-01-31T09:28:37;98813.89;;;3.14;82.08
65872;BME280;52653;50.080;21.992;2023-01-31T09:31:33;98818.90;;;3.13;81.61
65872;BME280;52653;50.080;21.992;2023-01-31T09:34:27;98821.30;;;3.11;81.37
65872;BME280;52653;50.080;21.992;2023-01-31T09:37:20;98823.73;;;3.12;81.41
65872;BME280;52653;50.080;21.992;2023-01-31T09:40:19;98828.74;;;3.11;81.19
65872;BME280;52653;50.080;21.992;2023-01-31T09:43:14;98833.77;;;3.10;81.23
65872;BME280;52653;50.080;21.992;2023-01-31T09:46:14;98834.81;;;3.11;81.28
65872;BME280;52653;50.080;21.992;2023-01-31T09:49:13;98837.02;;;3.19;81.61
65872;BME280;52653;50.080;21.992;2023-01-31T09:52:02;98833.61;;;3.22;80.69
65872;BME280;52653;50.080;21.992;2023-01-31T09:54:55;98833.84;;;3.26;81.03
65872;BME280;52653;50.080;21.992;2023-01-31T09:57:55;98832.73;;;3.33;80.56
65872;BME280;52653;50.080;21.992;2023-01-31T10:00:49;98828.43;;;3.35;79.89
65872;BME280;52653;50.080;21.992;2023-01-31T10:04:06;98833.17;;;3.41;80.25
65872;BME280;52653;50.080;21.992;2023-01-31T10:07:08;98831.48;;;3.43;79.71
65872;BME280;52653;50.080;21.992;2023-01-31T10:10:13;98831.41;;;3.37;79.49
65872;BME280;52653;50.080;21.992;2023-01-31T10:13:16;98835.23;;;3.26;79.46
65872;BME280;52653;50.080;21.992;2023-01-31T10:16:16;98835.02;;;3.24;79.75
65872;BME280;52653;50.080;21.992;2023-01-31T10:19:17;98830.79;;;3.30;79.85
65872;BME280;52653;50.080;21.992;2023-01-31T10:22:19;98828.11;;;3.38;79.54
65872;BME280;52653;50.080;21.992;2023-01-31T10:25:23;98823.70;;;3.43;79.36
65872;BME280;52653;50.080;21.992;2023-01-31T10:28:21;98825.14;;;3.48;79.11
65872;BME280;52653;50.080;21.992;2023-01-31T10:31:26;98815.60;;;3.60;78.90
65872;BME280;52653;50.080;21.992;2023-01-31T10:34:25;98814.36;;;3.71;78.44
65872;BME280;52653;50.080;21.992;2023-01-31T10:37:29;98822.62;;;3.79;77.43
65872;BME280;52653;50.080;21.992;2023-01-31T10:40:29;98822.33;;;3.82;77.01
65872;BME280;52653;50.080;21.992;2023-01-31T10:43:30;98818.13;;;3.81;76.88
65872;BME280;52653;50.080;21.992;2023-01-31T10:46:25;98818.17;;;3.83;76.59
65872;BME280;52653;50.080;21.992;2023-01-31T10:49:18;98816.14;;;3.89;76.66
65872;BME280;52653;50.080;21.992;2023-01-31T10:52:20;98820.56;;;3.95;75.99
65872;BME280;52653;50.080;21.992;2023-01-31T10:55:31;98823.46;;;3.91;75.73
65872;BME280;52653;50.080;21.992;2023-01-31T10:58:29;98822.35;;;3.84;75.80
65872;BME280;52653;50.080;21.992;2023-01-31T11:01:22;98819.89;;;3.82;76.24
65872;BME280;52653;50.080;21.992;2023-01-31T11:04:25;98817.48;;;3.83;76.28
65872;BME280;52653;50.080;21.992;2023-01-31T11:07:19;98818.73;;;3.87;76.21
65872;BME280;52653;50.080;21.992;2023-01-31T11:10:23;98822.46;;;3.94;76.25
65872;BME280;52653;50.080;21.992;2023-01-31T11:13:20;98822.73;;;4.02;75.78
65872;BME280;52653;50.080;21.992;2023-01-31T11:16:15;98826.45;;;4.07;75.55
65872;BME280;52653;50.080;21.992;2023-01-31T11:19:16;98826.13;;;4.09;75.13
65872;BME280;52653;50.080;21.992;2023-01-31T11:22:26;98823.37;;;4.11;74.97
65872;BME280;52653;50.080;21.992;2023-01-31T11:25:22;98831.45;;;4.05;74.51
65872;BME280;52653;50.080;21.992;2023-01-31T11:28:23;98827.05;;;4.00;74.77
65872;BME280;52653;50.080;21.992;2023-01-31T11:31:28;98827.86;;;3.96;74.58
65872;BME280;52653;50.080;21.992;2023-01-31T11:34:25;98822.64;;;3.95;74.90
65872;BME280;52653;50.080;21.992;2023-01-31T11:37:20;98829.38;;;3.93;74.35
65872;BME280;52653;50.080;21.992;2023-01-31T11:40:23;98821.63;;;3.96;74.57
65872;BME280;52653;50.080;21.992;2023-01-31T11:43:25;98823.03;;;3.97;74.81
65872;BME280;52653;50.080;21.992;2023-01-31T11:46:18;98818.98;;;3.93;74.68
65872;BME280;52653;50.080;21.992;2023-01-31T11:49:20;98821.98;;;3.82;74.81
65872;BME280;52653;50.080;21.992;2023-01-31T11:52:17;98821.58;;;3.66;75.56
65872;BME280;52653;50.080;21.992;2023-01-31T11:55:17;98815.96;;;3.48;76.09
65872;BME280;52653;50.080;21.992;2023-01-31T11:58:22;98825.65;;;3.35;76.13
65872;BME280;52653;50.080;21.992;2023-01-31T12:01:18;98822.07;;;3.28;76.22
65872;BME280;52653;50.080;21.992;2023-01-31T12:04:03;98827.09;;;3.27;76.46
65872;BME280;52653;50.080;21.992;2023-01-31T12:07:00;98833.80;;;3.23;76.02
65872;BME280;52653;50.080;21.992;2023-01-31T12:09:53;98834.67;;;3.24;76.38
65872;BME280;52653;50.080;21.992;2023-01-31T12:12:50;98829.83;;;3.24;76.89
65872;BME280;52653;50.080;21.992;2023-01-31T12:15:51;98833.13;;;3.26;76.81
65872;BME280;52653;50.080;21.992;2023-01-31T12:19:08;98830.55;;;3.28;76.56
65872;BME280;52653;50.080;21.992;2023-01-31T12:22:09;98832.59;;;3.24;75.87
65872;BME280;52653;50.080;21.992;2023-01-31T12:25:15;98830.11;;;3.20;76.12
65872;BME280;52653;50.080;21.992;2023-01-31T12:28:26;98832.28;;;3.16;76.40
65872;BME280;52653;50.080;21.992;2023-01-31T12:31:38;98832.38;;;3.10;76.49
65872;BME280;52653;50.080;21.992;2023-01-31T12:34:53;98831.81;;;3.07;77.01
65872;BME280;52653;50.080;21.992;2023-01-31T12:37:58;98829.76;;;2.98;77.06
65872;BME280;52653;50.080;21.992;2023-01-31T12:41:03;98829.02;;;2.85;77.00
65872;BME280;52653;50.080;21.992;2023-01-31T12:44:20;98836.80;;;2.75;76.98
65872;BME280;52653;50.080;21.992;2023-01-31T12:47:43;98848.80;;;2.67;77.41
65872;BME280;52653;50.080;21.992;2023-01-31T12:50:46;98846.95;;;2.60;77.93
65872;BME280;52653;50.080;21.992;2023-01-31T12:57:00;98853.77;;;2.46;78.26
65872;BME280;52653;50.080;21.992;2023-01-31T12:59:58;98848.90;;;2.35;78.60
65872;BME280;52653;50.080;21.992;2023-01-31T13:03:19;98855.83;;;2.27;79.19
65872;BME280;52653;50.080;21.992;2023-01-31T13:06:21;98861.62;;;2.22;79.45
65872;BME280;52653;50.080;21.992;2023-01-31T13:09:19;98858.13;;;2.19;79.55
65872;BME280;52653;50.080;21.992;2023-01-31T13:12:15;98860.94;;;2.14;79.84
65872;BME280;52653;50.080;21.992;2023-01-31T13:15:17;98855.73;;;2.13;80.10
65872;BME280;52653;50.080;21.992;2023-01-31T13:18:14;98857.79;;;2.13;80.17
65872;BME280;52653;50.080;21.992;2023-01-31T13:21:03;98854.14;;;2.12;80.28
65872;BME280;52653;50.080;21.992;2023-01-31T13:24:00;98850.84;;;2.10;80.18
65872;BME280;52653;50.080;21.992;2023-01-31T13:26:57;98862.42;;;2.10;80.23
65872;BME280;52653;50.080;21.992;2023-01-31T13:29:56;98860.00;;;2.10;80.36
65872;BME280;52653;50.080;21.992;2023-01-31T13:32:49;98859.16;;;2.12;79.95
65872;BME280;52653;50.080;21.992;2023-01-31T13:35:44;98854.73;;;2.15;79.90
65872;BME280;52653;50.080;21.992;2023-01-31T13:38:37;98853.61;;;2.19;79.83
65872;BME280;52653;50.080;21.992;2023-01-31T13:41:32;98856.25;;;2.21;79.44
65872;BME280;52653;50.080;21.992;2023-01-31T13:44:27;98860.06;;;2.22;79.38
65872;BME280;52653;50.080;21.992;2023-01-31T13:47:18;98858.69;;;2.22;79.48
65872;BME280;52653;50.080;21.992;2023-01-31T13:50:05;98855.27;;;2.25;79.52
65872;BME280;52653;50.080;21.992;2023-01-31T13:53:05;98848.27;;;2.29;79.27
65872;BME280;52653;50.080;21.992;2023-01-31T13:55:59;98841.36;;;2.29;78.82
65872;BME280;52653;50.080;21.992;2023-01-31T13:58:55;98845.66;;;2.28;78.82
65872;BME280;52653;50.080;21.992;2023-01-31T14:01:49;98845.87;;;2.21;78.47
65872;BME280;52653;50.080;21.992;2023-01-31T14:04:43;98849.45;;;2.19;78.96
65872;BME280;52653;50.080;21.992;2023-01-31T14:07:37;98845.73;;;2.15;79.06
65872;BME280;52653;50.080;21.992;2023-01-31T14:10:41;98851.19;;;2.11;78.98
65872;BME280;52653;50.080;21.992;2023-01-31T14:13:42;98853.86;;;2.06;78.80
65872;BME280;52653;50.080;21.992;2023-01-31T14:16:44;98853.45;;;2.03;78.86
65872;BME280;52653;50.080;21.992;2023-01-31T14:23:30;98860.77;;;1.97;78.66
65872;BME280;52653;50.080;21.992;2023-01-31T14:26:51;98858.30;;;1.95;78.72
65872;BME280;52653;50.080;21.992;2023-01-31T14:29:42;98853.59;;;1.93;78.65
65872;BME280;52653;50.080;21.992;2023-01-31T14:32:40;98850.79;;;1.90;78.13
65872;BME280;52653;50.080;21.992;2023-01-31T14:35:48;98852.45;;;1.88;77.76
65872;BME280;52653;50.080;21.992;2023-01-31T14:38:38;98849.33;;;1.88;77.48
65872;BME280;52653;50.080;21.992;2023-01-31T14:41:49;98848.31;;;1.89;77.46
65872;BME280;52653;50.080;21.992;2023-01-31T14:44:55;98848.11;;;1.88;77.04
65872;BME280;52653;50.080;21.992;2023-01-31T14:48:01;98851.75;;;1.88;76.90
65872;BME280;52653;50.080;21.992;2023-01-31T14:54:00;98851.02;;;1.87;77.42
65872;BME280;52653;50.080;21.992;2023-01-31T14:57:12;98855.59;;;1.90;77.66
65872;BME280;52653;50.080;21.992;2023-01-31T15:00:17;98860.11;;;1.91;77.72
65872;BME280;52653;50.080;21.992;2023-01-31T15:03:11;98860.73;;;1.88;77.45
65872;BME280;52653;50.080;21.992;2023-01-31T15:06:10;98852.52;;;1.83;77.24
65872;BME280;52653;50.080;21.992;2023-01-31T15:09:33;98856.24;;;1.79;77.21
65872;BME280;52653;50.080;21.992;2023-01-31T15:12:53;98860.59;;;1.72;77.28
65872;BME280;52653;50.080;21.992;2023-01-31T15:15:41;98867.38;;;1.66;76.84
65872;BME280;52653;50.080;21.992;2023-01-31T15:18:40;98862.42;;;1.62;77.07
65872;BME280;52653;50.080;21.992;2023-01-31T15:21:35;98862.89;;;1.60;77.27
65872;BME280;52653;50.080;21.992;2023-01-31T15:24:18;98861.60;;;1.55;77.32
65872;BME280;52653;50.080;21.992;2023-01-31T15:27:17;98868.40;;;1.51;77.81
65872;BME280;52653;50.080;21.992;2023-01-31T15:30:18;98862.25;;;1.46;77.89
65872;BME280;52653;50.080;21.992;2023-01-31T15:33:11;98858.04;;;1.42;78.28
65872;BME280;52653;50.080;21.992;2023-01-31T15:36:07;98855.80;;;1.36;78.36
65872;BME280;52653;50.080;21.992;2023-01-31T15:39:15;98860.18;;;1.31;78.70
65872;BME280;52653;50.080;21.992;2023-01-31T15:42:30;98857.11;;;1.26;79.15
65872;BME280;52653;50.080;21.992;2023-01-31T15:45:24;98858.22;;;1.21;79.31
65872;BME280;52653;50.080;21.992;2023-01-31T15:48:17;98857.27;;;1.17;79.57